sensor_id;sensor_type;location;lat;lon;timestamp;temperature;humidity
26613;DHT22;14248;57.652;11.908;2023-06-14T05:54:33;29.90;47.80
26613;DHT22;14248;57.652;11.908;2023-06-14T05:56:59;16.80;93.80
26613;DHT22;14248;57.652;11.908;2023-06-14T05:59:28;16.70;93.90
26613;DHT22;14248;57.652;11.908;2023-06-14T08:16:41;16.70;93.80
26613;DHT22;14248;57.652;11.908;2023-06-14T08:19:09;21.40;88.80
26613;DHT22;14248;57.652;11.908;2023-06-14T09:30:53;21.40;87.60
26613;DHT22;14248;57.652;11.908;2023-06-14T10:25:50;23.20;78.30
26613;DHT22;14248;57.652;11.908;2023-06-14T10:28:22;23.70;75.00
26613;DHT22;14248;57.652;11.908;2023-06-14T10:31:10;23.70;74.10
26613;DHT22;14248;57.652;11.908;2023-06-14T10:33:40;23.70;73.30
26613;DHT22;14248;57.652;11.908;2023-06-14T10:41:27;23.60;69.90
26613;DHT22;14248;57.652;11.908;2023-06-14T10:46:40;23.80;69.50
26613;DHT22;14248;57.652;11.908;2023-06-14T10:54:20;23.90;68.60
26613;DHT22;14248;57.652;11.908;2023-06-14T10:56:47;24.10;65.70
26613;DHT22;14248;57.652;11.908;2023-06-14T10:59:14;24.20;65.20
26613;DHT22;14248;57.652;11.908;2023-06-14T11:04:50;24.40;63.60
26613;DHT22;14248;57.652;11.908;2023-06-14T11:10:40;24.60;64.10
26613;DHT22;14248;57.652;11.908;2023-06-14T11:13:07;24.60;64.00
26613;DHT22;14248;57.652;11.908;2023-06-14T11:15:35;24.70;63.50
26613;DHT22;14248;57.652;11.908;2023-06-14T11:18:09;24.80;64.20
26613;DHT22;14248;57.652;11.908;2023-06-14T11:20:36;24.90;64.00
26613;DHT22;14248;57.652;11.908;2023-06-14T11:23:04;25.00;64.40
26613;DHT22;14248;57.652;11.908;2023-06-14T13:19:32;25.10;64.40
26613;DHT22;14248;57.652;11.908;2023-06-14T13:24:24;29.20;48.30
26613;DHT22;14248;57.652;11.908;2023-06-14T13:26:50;30.50;45.30
26613;DHT22;14248;57.652;11.908;2023-06-14T13:29:16;31.20;44.80
26613;DHT22;14248;57.652;11.908;2023-06-14T13:31:42;31.90;44.60
26613;DHT22;14248;57.652;11.908;2023-06-14T13:34:08;32.70;42.90
26613;DHT22;14248;57.652;11.908;2023-06-14T13:36:33;33.30;41.00
26613;DHT22;14248;57.652;11.908;2023-06-14T13:39:01;33.70;41.50
26613;DHT22;14248;57.652;11.908;2023-06-14T13:41:28;34.20;40.70
26613;DHT22;14248;57.652;11.908;2023-06-14T13:44:00;34.70;40.60
26613;DHT22;14248;57.652;11.908;2023-06-14T13:46:27;35.20;40.30
26613;DHT22;14248;57.652;11.908;2023-06-14T13:48:53;35.70;40.20
26613;DHT22;14248;57.652;11.908;2023-06-14T13:51:19;36.10;39.30
26613;DHT22;14248;57.652;11.908;2023-06-14T13:53:47;36.50;39.30
26613;DHT22;14248;57.652;11.908;2023-06-14T13:56:13;36.80;38.70
26613;DHT22;14248;57.652;11.908;2023-06-14T13:58:38;37.00;39.00
26613;DHT22;14248;57.652;11.908;2023-06-14T14:01:04;37.20;37.20
26613;DHT22;14248;57.652;11.908;2023-06-14T14:03:30;37.10;36.60
26613;DHT22;14248;57.652;11.908;2023-06-14T14:05:56;36.80;36.60
26613;DHT22;14248;57.652;11.908;2023-06-14T14:08:22;36.70;37.20
26613;DHT22;14248;57.652;11.908;2023-06-14T14:10:47;36.70;37.60
26613;DHT22;14248;57.652;11.908;2023-06-14T14:13:13;36.90;37.20
26613;DHT22;14248;57.652;11.908;2023-06-14T14:15:39;37.10;37.50
26613;DHT22;14248;57.652;11.908;2023-06-14T14:18:05;37.30;37.20
26613;DHT22;14248;57.652;11.908;2023-06-14T14:20:31;37.50;36.40
26613;DHT22;14248;57.652;11.908;2023-06-14T14:22:57;37.40;36.40
26613;DHT22;14248;57.652;11.908;2023-06-14T14:25:23;37.40;36.40
26613;DHT22;14248;57.652;11.908;2023-06-14T14:27:48;37.40;36.30
26613;DHT22;14248;57.652;11.908;2023-06-14T14:30:14;37.30;35.10
26613;DHT22;14248;57.652;11.908;2023-06-14T14:32:42;37.00;35.00
26613;DHT22;14248;57.652;11.908;2023-06-14T14:35:08;36.90;34.90
26613;DHT22;14248;57.652;11.908;2023-06-14T14:37:34;37.10;35.00
26613;DHT22;14248;57.652;11.908;2023-06-14T14:40:00;37.40;34.60
26613;DHT22;14248;57.652;11.908;2023-06-14T14:42:25;37.70;34.30
26613;DHT22;14248;57.652;11.908;2023-06-14T14:44:52;38.00;33.60
26613;DHT22;14248;57.652;11.908;2023-06-14T14:47:18;37.60;33.20
26613;DHT22;14248;57.652;11.908;2023-06-14T14:49:43;37.10;33.60
26613;DHT22;14248;57.652;11.908;2023-06-14T14:52:09;36.90;33.40
26613;DHT22;14248;57.652;11.908;2023-06-14T14:54:35;36.80;33.20
26613;DHT22;14248;57.652;11.908;2023-06-14T14:57:01;36.30;34.00
26613;DHT22;14248;57.652;11.908;2023-06-14T14:59:27;36.00;34.60
26613;DHT22;14248;57.652;11.908;2023-06-14T15:01:53;36.30;34.10
26613;DHT22;14248;57.652;11.908;2023-06-14T15:04:18;36.70;33.80
26613;DHT22;14248;57.652;11.908;2023-06-14T15:06:44;36.90;33.50
26613;DHT22;14248;57.652;11.908;2023-06-14T15:09:10;37.10;33.40
26613;DHT22;14248;57.652;11.908;2023-06-14T15:11:36;37.30;33.60
26613;DHT22;14248;57.652;11.908;2023-06-14T15:14:01;37.70;33.60
26613;DHT22;14248;57.652;11.908;2023-06-14T15:16:27;38.00;33.10
26613;DHT22;14248;57.652;11.908;2023-06-14T15:18:53;38.10;33.10
26613;DHT22;14248;57.652;11.908;2023-06-14T15:21:18;38.40;32.50
26613;DHT22;14248;57.652;11.908;2023-06-14T15:23:48;38.50;32.30
26613;DHT22;14248;57.652;11.908;2023-06-14T15:26:13;38.60;32.60
26613;DHT22;14248;57.652;11.908;2023-06-14T15:28:39;38.90;33.10
26613;DHT22;14248;57.652;11.908;2023-06-14T15:31:05;39.00;32.60
26613;DHT22;14248;57.652;11.908;2023-06-14T15:33:31;38.00;33.90
26613;DHT22;14248;57.652;11.908;2023-06-14T15:35:57;37.30;34.20
26613;DHT22;14248;57.652;11.908;2023-06-14T15:38:23;37.30;34.40
26613;DHT22;14248;57.652;11.908;2023-06-14T15:40:48;37.60;34.50
26613;DHT22;14248;57.652;11.908;2023-06-14T15:43:14;37.90;33.70
26613;DHT22;14248;57.652;11.908;2023-06-14T15:45:40;38.10;33.90
26613;DHT22;14248;57.652;11.908;2023-06-14T15:48:06;38.20;34.10
26613;DHT22;14248;57.652;11.908;2023-06-14T15:50:31;38.40;34.20
26613;DHT22;14248;57.652;11.908;2023-06-14T15:52:57;38.90;34.50
26613;DHT22;14248;57.652;11.908;2023-06-14T15:55:23;39.50;33.80
26613;DHT22;14248;57.652;11.908;2023-06-14T15:57:48;39.80;33.40
26613;DHT22;14248;57.652;11.908;2023-06-14T16:00:15;40.00;32.60
26613;DHT22;14248;57.652;11.908;2023-06-14T16:02:41;40.00;32.40
26613;DHT22;14248;57.652;11.908;2023-06-14T16:05:06;40.00;32.30
26613;DHT22;14248;57.652;11.908;2023-06-14T16:07:32;39.60;32.40
26613;DHT22;14248;57.652;11.908;2023-06-14T16:09:58;39.30;32.70
26613;DHT22;14248;57.652;11.908;2023-06-14T16:12:24;38.30;33.10
26613;DHT22;14248;57.652;11.908;2023-06-14T16:14:49;36.90;34.00
26613;DHT22;14248;57.652;11.908;2023-06-14T16:17:15;35.40;35.30
26613;DHT22;14248;57.652;11.908;2023-06-14T16:19:41;34.10;36.60
26613;DHT22;14248;57.652;11.908;2023-06-14T16:22:06;33.10;38.10
26613;DHT22;14248;57.652;11.908;2023-06-14T16:24:32;32.20;39.30
26613;DHT22;14248;57.652;11.908;2023-06-14T16:29:24;31.60;40.20
26613;DHT22;14248;57.652;11.908;2023-06-14T16:31:49;30.60;42.00
26613;DHT22;14248;57.652;11.908;2023-06-14T16:34:15;30.20;42.70
26613;DHT22;14248;57.652;11.908;2023-06-14T16:44:02;29.90;43.20
26613;DHT22;14248;57.652;11.908;2023-06-14T16:48:58;29.00;45.80
26613;DHT22;14248;57.652;11.908;2023-06-14T16:51:23;28.70;47.20
26613;DHT22;14248;57.652;11.908;2023-06-14T16:53:49;29.50;47.10
26613;DHT22;14248;57.652;11.908;2023-06-14T16:56:19;31.00;45.50
26613;DHT22;14248;57.652;11.908;2023-06-14T17:01:12;32.40;43.80
26613;DHT22;14248;57.652;11.908;2023-06-14T17:03:39;34.70;40.40
26613;DHT22;14248;57.652;11.908;2023-06-14T17:06:06;35.50;39.60
26613;DHT22;14248;57.652;11.908;2023-06-14T17:08:33;36.20;38.80
26613;DHT22;14248;57.652;11.908;2023-06-14T17:11:00;36.80;38.40
26613;DHT22;14248;57.652;11.908;2023-06-14T17:13:25;37.10;37.70
26613;DHT22;14248;57.652;11.908;2023-06-14T17:15:51;37.20;37.20
26613;DHT22;14248;57.652;11.908;2023-06-14T17:18:17;37.00;37.50
26613;DHT22;14248;57.652;11.908;2023-06-14T17:20:44;36.80;37.10
26613;DHT22;14248;57.652;11.908;2023-06-14T17:23:10;36.30;37.70
26613;DHT22;14248;57.652;11.908;2023-06-14T17:25:36;36.30;38.20
26613;DHT22;14248;57.652;11.908;2023-06-14T17:28:02;36.60;38.30
26613;DHT22;14248;57.652;11.908;2023-06-14T17:30:31;36.90;37.80
26613;DHT22;14248;57.652;11.908;2023-06-14T17:32:58;37.30;38.00
26613;DHT22;14248;57.652;11.908;2023-06-14T17:35:24;37.50;37.40
26613;DHT22;14248;57.652;11.908;2023-06-14T17:37:50;37.60;37.00
26613;DHT22;14248;57.652;11.908;2023-06-14T17:40:17;37.60;37.40
26613;DHT22;14248;57.652;11.908;2023-06-14T17:42:43;37.60;37.20
26613;DHT22;14248;57.652;11.908;2023-06-14T17:45:10;37.40;37.70
26613;DHT22;14248;57.652;11.908;2023-06-14T17:47:37;37.30;37.80
26613;DHT22;14248;57.652;11.908;2023-06-14T17:50:03;36.90;38.20
26613;DHT22;14248;57.652;11.908;2023-06-14T17:52:29;36.50;38.60
26613;DHT22;14248;57.652;11.908;2023-06-14T17:54:55;36.20;39.10
26613;DHT22;14248;57.652;11.908;2023-06-14T17:57:21;36.30;39.10
26613;DHT22;14248;57.652;11.908;2023-06-14T17:59:47;36.30;38.90
26613;DHT22;14248;57.652;11.908;2023-06-14T18:02:14;35.90;39.30
26613;DHT22;14248;57.652;11.908;2023-06-14T18:04:40;35.60;40.00
26613;DHT22;14248;57.652;11.908;2023-06-14T18:07:06;35.40;40.40
26613;DHT22;14248;57.652;11.908;2023-06-14T18:09:31;35.10;40.80
26613;DHT22;14248;57.652;11.908;2023-06-14T18:11:57;35.10;41.20
26613;DHT22;14248;57.652;11.908;2023-06-14T18:14:23;35.00;41.30
26613;DHT22;14248;57.652;11.908;2023-06-14T18:16:49;34.90;41.60
26613;DHT22;14248;57.652;11.908;2023-06-14T18:19:16;34.90;41.80
26613;DHT22;14248;57.652;11.908;2023-06-14T18:21:46;35.00;41.70
26613;DHT22;14248;57.652;11.908;2023-06-14T18:24:13;35.10;41.70
26613;DHT22;14248;57.652;11.908;2023-06-14T18:26:38;35.00;41.30
26613;DHT22;14248;57.652;11.908;2023-06-14T18:29:04;35.10;41.60
26613;DHT22;14248;57.652;11.908;2023-06-14T18:31:30;35.00;41.30
26613;DHT22;14248;57.652;11.908;2023-06-14T18:33:56;34.80;41.20
26613;DHT22;14248;57.652;11.908;2023-06-14T18:36:23;34.40;41.60
26613;DHT22;14248;57.652;11.908;2023-06-14T18:38:49;34.00;41.90
26613;DHT22;14248;57.652;11.908;2023-06-14T18:41:15;33.60;42.80
26613;DHT22;14248;57.652;11.908;2023-06-14T18:43:41;33.20;43.60
26613;DHT22;14248;57.652;11.908;2023-06-14T18:46:08;33.10;43.80
26613;DHT22;14248;57.652;11.908;2023-06-14T18:48:34;32.90;43.90
26613;DHT22;14248;57.652;11.908;2023-06-14T18:51:00;32.80;44.00
26613;DHT22;14248;57.652;11.908;2023-06-14T18:53:26;32.60;44.40
26613;DHT22;14248;57.652;11.908;2023-06-14T18:55:52;32.20;45.00
26613;DHT22;14248;57.652;11.908;2023-06-14T19:00:48;31.60;45.90
26613;DHT22;14248;57.652;11.908;2023-06-14T19:05:40;30.10;48.10
26613;DHT22;14248;57.652;11.908;2023-06-14T19:12:58;28.80;50.90
